Time;durP1;ratioP1;P1;durP2;ratioP2;P2;SDS_P1;SDS_P2;PMS_P1;PMS_P2;Temp;Humidity;BMP_temperature;BMP_pressure;BME280_temperature;BME280_humidity;BME280_pressure;Samples;Min_cycle;Max_cycle;Signal;HPM_P1;HPM_P2
2023/08/17 21:06:40;;;;;;;4.72;4.32;;;;;;;;;;6105873;23;1274421;-95
2023/08/17 21:09:07;;;;;;;4.78;4.38;;;;;;;;;;6101494;23;20022;-94
2023/08/17 21:11:32;;;;;;;4.32;4.03;;;16.80;99.90;;;;;;6103172;23;20085;-94
2023/08/17 21:13:58;;;;;;;7.80;4.60;;;16.70;99.90;;;;;;6128036;23;20018;-94
2023/08/17 21:16:23;;;;;;;6.03;5.03;;;16.70;99.90;;;;;;6127141;23;20014;-94
2023/08/17 21:18:49;;;;;;;5.55;5.05;;;16.70;99.90;;;;;;6102435;23;20006;-96
2023/08/17 21:21:15;;;;;;;6.07;5.57;;;16.70;99.90;;;;;;6134451;23;20093;-96
2023/08/17 21:23:41;;;;;;;6.55;5.88;;;16.60;99.90;;;;;;6137302;23;20010;-96
2023/08/17 21:26:06;;;;;;;7.18;5.82;;;16.60;99.90;;;;;;6126384;23;20020;-93
2023/08/17 21:28:32;;;;;;;8.80;6.43;;;16.70;99.90;;;;;;6106361;23;20025;-95
2023/08/17 21:31:02;;;;;;;8.88;6.72;;;16.60;99.90;;;;;;6107732;23;20471;-96
2023/08/17 21:33:28;;;;;;;8.05;7.00;;;16.60;99.90;;;;;;6130268;23;20073;-95
2023/08/17 21:35:56;;;;;;;7.72;7.03;;;16.60;99.90;;;;;;6129892;23;20073;-96
2023/08/17 21:38:22;;;;;;;8.20;7.38;;;16.50;99.90;;;;;;6105565;23;20022;-95
2023/08/17 21:40:48;;;;;;;8.23;6.75;;;16.50;99.90;;;;;;6127767;23;20064;-94
2023/08/17 21:43:13;;;;;;;9.55;6.82;;;16.50;99.90;;;;;;6105063;23;20021;-95
2023/08/17 21:45:39;;;;;;;8.00;7.18;;;16.50;99.90;;;;;;6136094;23;20013;-94
2023/08/17 21:48:05;;;;;;;7.90;7.15;;;16.50;99.90;;;;;;6114880;23;20021;-96
2023/08/17 21:50:30;;;;;;;7.60;6.90;;;16.60;99.90;;;;;;6144166;23;20009;-96
2023/08/17 21:52:57;;;;;;;7.88;7.07;;;16.50;99.90;;;;;;6133456;23;20018;-96
2023/08/17 21:55:23;;;;;;;10.73;7.53;;;16.50;99.90;;;;;;6145491;23;20010;-96
2023/08/17 21:57:49;;;;;;;10.60;7.45;;;16.50;99.90;;;;;;6114426;23;20029;-95
2023/08/17 22:00:15;;;;;;;8.57;6.72;;;16.50;99.90;;;;;;6123104;23;20010;-96
2023/08/17 22:02:40;;;;;;;9.20;7.22;;;16.40;99.90;;;;;;6118870;23;20029;-96
2023/08/17 22:05:06;;;;;;;9.95;7.63;;;16.40;99.90;;;;;;6129591;23;20014;-96
2023/08/17 22:07:32;;;;;;;10.77;7.38;;;16.40;99.90;;;;;;6103090;23;20104;-96
2023/08/17 22:09:58;;;;;;;9.38;7.28;;;16.40;99.90;;;;;;6130419;23;20014;-96
2023/08/17 22:12:24;;;;;;;9.98;6.78;;;16.40;99.90;;;;;;6105572;23;20028;-96
2023/08/17 22:14:49;;;;;;;10.80;7.75;;;16.30;99.90;;;;;;6129392;23;20049;-96
2023/08/17 22:17:15;;;;;;;12.55;7.43;;;16.30;99.90;;;;;;6126700;23;20018;-96
2023/08/17 22:19:41;;;;;;;10.43;7.57;;;16.40;99.90;;;;;;6102763;23;20092;-96
2023/08/17 22:22:07;;;;;;;10.95;8.20;;;16.40;99.90;;;;;;6125286;23;20093;-96
2023/08/17 22:24:32;;;;;;;13.18;8.93;;;16.30;99.90;;;;;;6127261;23;20089;-96
2023/08/17 22:26:58;;;;;;;9.88;8.70;;;16.40;99.90;;;;;;6101408;23;20045;-96
2023/08/17 22:29:24;;;;;;;9.82;8.27;;;16.30;99.90;;;;;;6102473;23;20052;-96
2023/08/17 22:31:49;;;;;;;12.38;9.20;;;16.30;99.90;;;;;;6103655;23;20025;-95
2023/08/17 22:34:15;;;;;;;13.25;9.27;;;16.30;99.90;;;;;;6106298;23;20020;-96
2023/08/17 22:36:41;;;;;;;12.48;9.63;;;16.20;99.90;;;;;;6104748;23;20021;-96
2023/08/17 22:39:06;;;;;;;11.02;9.55;;;16.30;99.90;;;;;;6103177;23;20040;-96
2023/08/17 22:41:32;;;;;;;13.07;9.48;;;16.20;99.90;;;;;;6104294;23;20080;-96
2023/08/17 22:43:58;;;;;;;14.57;9.75;;;16.30;99.90;;;;;;6130308;23;20010;-96
2023/08/17 22:46:24;;;;;;;12.65;10.40;;;16.30;99.90;;;;;;6105095;23;20021;-96
2023/08/17 22:48:49;;;;;;;11.55;10.45;;;16.30;99.90;;;;;;6111987;23;20049;-96
2023/08/17 22:51:15;;;;;;;14.07;12.10;;;16.30;99.90;;;;;;6132946;23;20432;-96
2023/08/17 22:53:42;;;;;;;17.35;14.80;;;16.30;99.90;;;;;;6114874;23;20025;-95
2023/08/17 22:56:07;;;;;;;15.20;13.23;;;16.30;99.90;;;;;;6106331;23;20018;-96
2023/08/17 22:58:33;;;;;;;15.70;13.32;;;16.30;99.90;;;;;;6101962;23;20020;-96
2023/08/17 23:00:59;;;;;;;14.25;12.57;;;16.20;99.90;;;;;;6102284;23;20089;-96
2023/08/17 23:03:28;;;;;;;15.60;13.93;;;16.20;99.90;;;;;;6125131;23;20131;-96
2023/08/17 23:05:53;;;;;;;19.08;16.27;;;16.30;99.90;;;;;;6103406;23;20104;-96
2023/08/17 23:08:19;;;;;;;17.33;15.32;;;16.20;99.90;;;;;;6126208;23;20053;-96
2023/08/17 23:10:46;;;;;;;22.83;16.73;;;16.20;99.90;;;;;;6100795;23;20014;-96
2023/08/17 23:13:14;;;;;;;18.17;15.32;;;16.20;99.90;;;;;;6102164;23;20014;-96
2023/08/17 23:15:41;;;;;;;19.60;13.93;;;16.20;99.90;;;;;;6128361;23;20010;-96
2023/08/17 23:18:06;;;;;;;14.23;11.88;;;16.20;99.90;;;;;;6104579;23;20010;-93
2023/08/17 23:20:32;;;;;;;11.88;10.75;;;16.20;99.90;;;;;;6135097;23;20467;-94
2023/08/17 23:23:01;;;;;;;10.70;9.60;;;16.20;99.90;;;;;;6107239;23;20452;-96
2023/08/17 23:25:26;;;;;;;10.93;9.82;;;16.10;99.90;;;;;;6137833;23;20020;-93
2023/08/17 23:27:54;;;;;;;11.38;8.48;;;16.20;99.90;;;;;;6135424;23;20017;-96
2023/08/17 23:30:21;;;;;;;11.23;8.88;;;16.20;99.90;;;;;;6132335;23;20435;-96
